Aviation Digital Data Service (ADDS)

Output produced by METARs form (0546 UTC 21 January 2019)
found at http://www.aviationweather.gov/metar/data/
 
METAR text: VECC 210530Z 01004KT 2500 HZ NSC 23/12 Q1017 NOSIG
Conditions at: VECC (CALCUTTA/DUM DUM, IN) observed 0530 UTC 21 January 2019
Temperature: 23.0°C (73°F)
Dewpoint: 12.0°C (54°F) [RH = 50%]
Pressure (altimeter): 30.03 inches Hg (1017.0 mb)
Winds: from the N (10 degrees) at 5 MPH (4 knots; 2.1 m/s)
Visibility: 1.55 miles (2.49 km)
Ceiling: at least 12,000 feet AGL
Clouds: sky clear below 12,000 feet AGL
Weather: HZ  (haze)

METAR text: VECC 210500Z 31005KT 2200 FU NSC 21/12 Q1017 NOSIG
Conditions at: VECC (CALCUTTA/DUM DUM, IN) observed 0500 UTC 21 January 2019
Temperature: 21.0°C (70°F)
Dewpoint: 12.0°C (54°F) [RH = 56%]
Pressure (altimeter): 30.03 inches Hg (1017.0 mb)
Winds: from the NW (310 degrees) at 6 MPH (5 knots; 2.6 m/s)
Visibility: 1.37 miles (2.20 km)
Ceiling: at least 12,000 feet AGL
Clouds: sky clear below 12,000 feet AGL
Weather: FU  (smoke)

METAR text: VECC 210430Z 34004KT 2000 FU NSC 20/12 Q1017 NOSIG
Conditions at: VECC (CALCUTTA/DUM DUM, IN) observed 0430 UTC 21 January 2019
Temperature: 20.0°C (68°F)
Dewpoint: 12.0°C (54°F) [RH = 60%]
Pressure (altimeter): 30.03 inches Hg (1017.0 mb)
Winds: from the NNW (340 degrees) at 5 MPH (4 knots; 2.1 m/s)
Visibility: 1.24 miles (2.00 km)
Ceiling: at least 12,000 feet AGL
Clouds: sky clear below 12,000 feet AGL
Weather: FU  (smoke)

METAR text: VECC 210400Z 36004KT 1800 FU NSC 18/13 Q1017 NOSIG
Conditions at: VECC (CALCUTTA/DUM DUM, IN) observed 0400 UTC 21 January 2019
Temperature: 18.0°C (64°F)
Dewpoint: 13.0°C (55°F) [RH = 73%]
Pressure (altimeter): 30.03 inches Hg (1017.0 mb)
Winds: from the N (360 degrees) at 5 MPH (4 knots; 2.1 m/s)
Visibility: 1.12 miles (1.80 km)
Ceiling: at least 12,000 feet AGL
Clouds: sky clear below 12,000 feet AGL
Weather: FU  (smoke)

METAR text: VECC 210330Z 36005KT 1800 FU NSC 17/13 Q1017 NOSIG
Conditions at: VECC (CALCUTTA/DUM DUM, IN) observed 0330 UTC 21 January 2019
Temperature: 17.0°C (63°F)
Dewpoint: 13.0°C (55°F) [RH = 77%]
Pressure (altimeter): 30.03 inches Hg (1017.0 mb)
Winds: from the N (360 degrees) at 6 MPH (5 knots; 2.6 m/s)
Visibility: 1.12 miles (1.80 km)
Ceiling: at least 12,000 feet AGL
Clouds: sky clear below 12,000 feet AGL
Weather: FU  (smoke)

METAR text: VECC 210300Z 35004KT 1200 R01R/1400 BR NSC 15/13 Q1018 BECMG 1500 BR
Conditions at: VECC (CALCUTTA/DUM DUM, IN) observed 0300 UTC 21 January 2019
Temperature: 15.0°C (59°F)
Dewpoint: 13.0°C (55°F) [RH = 88%]
Pressure (altimeter): 30.06 inches Hg (1018.0 mb)
Winds: from the N (350 degrees) at 5 MPH (4 knots; 2.1 m/s)
Visibility: 0.75 miles (1.21 km)
Ceiling: at least 12,000 feet AGL
Clouds: sky clear below 12,000 feet AGL
Weather: BR  (mist)

METAR text: VECC 210230Z 00000KT 1000 R01R/1200 BR NSC 14/12 Q1017 NOSIG
Conditions at: VECC (CALCUTTA/DUM DUM, IN) observed 0230 UTC 21 January 2019
Temperature: 14.0°C (57°F)
Dewpoint: 12.0°C (54°F) [RH = 88%]
Pressure (altimeter): 30.03 inches Hg (1017.0 mb)
Winds: calm
Visibility: 0.62 miles (1.00 km)
Ceiling: at least 12,000 feet AGL
Clouds: sky clear below 12,000 feet AGL
Weather: BR  (mist)

METAR text: VECC 210200Z 00000KT 1000 R01R/1200 BR NSC 13/11 Q1017 NOSIG
Conditions at: VECC (CALCUTTA/DUM DUM, IN) observed 0200 UTC 21 January 2019
Temperature: 13.0°C (55°F)
Dewpoint: 11.0°C (52°F) [RH = 88%]
Pressure (altimeter): 30.03 inches Hg (1017.0 mb)
Winds: calm
Visibility: 0.62 miles (1.00 km)
Ceiling: at least 12,000 feet AGL
Clouds: sky clear below 12,000 feet AGL
Weather: BR  (mist)

METAR text: VECC 210130Z 00000KT 1100 R01R/1200 BR NSC 12/11 Q1016 NOSIG
Conditions at: VECC (CALCUTTA/DUM DUM, IN) observed 0130 UTC 21 January 2019
Temperature: 12.0°C (54°F)
Dewpoint: 11.0°C (52°F) [RH = 94%]
Pressure (altimeter): 30.00 inches Hg (1016.0 mb)
Winds: calm
Visibility: 0.68 miles (1.09 km)
Ceiling: at least 12,000 feet AGL
Clouds: sky clear below 12,000 feet AGL
Weather: BR  (mist)

METAR text: VECC 210100Z 00000KT 1600 BR NSC 12/11 Q1016 BECMG 1500 BR
Conditions at: VECC (CALCUTTA/DUM DUM, IN) observed 0100 UTC 21 January 2019
Temperature: 12.0°C (54°F)
Dewpoint: 11.0°C (52°F) [RH = 94%]
Pressure (altimeter): 30.00 inches Hg (1016.0 mb)
Winds: calm
Visibility: 0.99 miles (1.59 km)
Ceiling: at least 12,000 feet AGL
Clouds: sky clear below 12,000 feet AGL
Weather: BR  (mist)

METAR text: VECC 210030Z 00000KT 1700 BR NSC 12/11 Q1015 NOSIG
Conditions at: VECC (CALCUTTA/DUM DUM, IN) observed 0030 UTC 21 January 2019
Temperature: 12.0°C (54°F)
Dewpoint: 11.0°C (52°F) [RH = 94%]
Pressure (altimeter): 29.97 inches Hg (1015.0 mb)
Winds: calm
Visibility: 1.06 miles (1.71 km)
Ceiling: at least 12,000 feet AGL
Clouds: sky clear below 12,000 feet AGL
Weather: BR  (mist)

METAR text: VECC 210000Z 00000KT 1800 BR NSC 12/11 Q1015 NOSIG
Conditions at: VECC (CALCUTTA/DUM DUM, IN) observed 0000 UTC 21 January 2019
Temperature: 12.0°C (54°F)
Dewpoint: 11.0°C (52°F) [RH = 94%]
Pressure (altimeter): 29.97 inches Hg (1015.0 mb)
Winds: calm
Visibility: 1.12 miles (1.80 km)
Ceiling: at least 12,000 feet AGL
Clouds: sky clear below 12,000 feet AGL
Weather: BR  (mist)

METAR text: VECC 202330Z 00000KT 2000 BR NSC 12/11 Q1015 NOSIG
Conditions at: VECC (CALCUTTA/DUM DUM, IN) observed 2330 UTC 20 January 2019
Temperature: 12.0°C (54°F)
Dewpoint: 11.0°C (52°F) [RH = 94%]
Pressure (altimeter): 29.97 inches Hg (1015.0 mb)
Winds: calm
Visibility: 1.24 miles (2.00 km)
Ceiling: at least 12,000 feet AGL
Clouds: sky clear below 12,000 feet AGL
Weather: BR  (mist)

METAR text: VECC 202300Z 00000KT 2000 BR NSC 12/11 Q1015 NOSIG
Conditions at: VECC (CALCUTTA/DUM DUM, IN) observed 2300 UTC 20 January 2019
Temperature: 12.0°C (54°F)
Dewpoint: 11.0°C (52°F) [RH = 94%]
Pressure (altimeter): 29.97 inches Hg (1015.0 mb)
Winds: calm
Visibility: 1.24 miles (2.00 km)
Ceiling: at least 12,000 feet AGL
Clouds: sky clear below 12,000 feet AGL
Weather: BR  (mist)

METAR text: VECC 202230Z 00000KT 2200 BR NSC 13/12 Q1015 NOSIG
Conditions at: VECC (CALCUTTA/DUM DUM, IN) observed 2230 UTC 20 January 2019
Temperature: 13.0°C (55°F)
Dewpoint: 12.0°C (54°F) [RH = 94%]
Pressure (altimeter): 29.97 inches Hg (1015.0 mb)
Winds: calm
Visibility: 1.37 miles (2.20 km)
Ceiling: at least 12,000 feet AGL
Clouds: sky clear below 12,000 feet AGL
Weather: BR  (mist)

METAR text: VECC 202200Z 00000KT 2200 BR NSC 13/12 Q1015 NOSIG
Conditions at: VECC (CALCUTTA/DUM DUM, IN) observed 2200 UTC 20 January 2019
Temperature: 13.0°C (55°F)
Dewpoint: 12.0°C (54°F) [RH = 94%]
Pressure (altimeter): 29.97 inches Hg (1015.0 mb)
Winds: calm
Visibility: 1.37 miles (2.20 km)
Ceiling: at least 12,000 feet AGL
Clouds: sky clear below 12,000 feet AGL
Weather: BR  (mist)

METAR text: VECC 202130Z 00000KT 2200 BR NSC 13/12 Q1015 NOSIG
Conditions at: VECC (CALCUTTA/DUM DUM, IN) observed 2130 UTC 20 January 2019
Temperature: 13.0°C (55°F)
Dewpoint: 12.0°C (54°F) [RH = 94%]
Pressure (altimeter): 29.97 inches Hg (1015.0 mb)
Winds: calm
Visibility: 1.37 miles (2.20 km)
Ceiling: at least 12,000 feet AGL
Clouds: sky clear below 12,000 feet AGL
Weather: BR  (mist)

METAR text: VECC 202100Z 00000KT 2200 BR NSC 13/12 Q1015 NOSIG
Conditions at: VECC (CALCUTTA/DUM DUM, IN) observed 2100 UTC 20 January 2019
Temperature: 13.0°C (55°F)
Dewpoint: 12.0°C (54°F) [RH = 94%]
Pressure (altimeter): 29.97 inches Hg (1015.0 mb)
Winds: calm
Visibility: 1.37 miles (2.20 km)
Ceiling: at least 12,000 feet AGL
Clouds: sky clear below 12,000 feet AGL
Weather: BR  (mist)

METAR text: VECC 202030Z 00000KT 2200 BR NSC 13/12 Q1015 NOSIG
Conditions at: VECC (CALCUTTA/DUM DUM, IN) observed 2030 UTC 20 January 2019
Temperature: 13.0°C (55°F)
Dewpoint: 12.0°C (54°F) [RH = 94%]
Pressure (altimeter): 29.97 inches Hg (1015.0 mb)
Winds: calm
Visibility: 1.37 miles (2.20 km)
Ceiling: at least 12,000 feet AGL
Clouds: sky clear below 12,000 feet AGL
Weather: BR  (mist)

METAR text: VECC 202000Z 00000KT 2200 BR NSC 13/12 Q1015 NOSIG
Conditions at: VECC (CALCUTTA/DUM DUM, IN) observed 2000 UTC 20 January 2019
Temperature: 13.0°C (55°F)
Dewpoint: 12.0°C (54°F) [RH = 94%]
Pressure (altimeter): 29.97 inches Hg (1015.0 mb)
Winds: calm
Visibility: 1.37 miles (2.20 km)
Ceiling: at least 12,000 feet AGL
Clouds: sky clear below 12,000 feet AGL
Weather: BR  (mist)

METAR text: VECC 201930Z 00000KT 2200 BR NSC 14/13 Q1016 NOSIG
Conditions at: VECC (CALCUTTA/DUM DUM, IN) observed 1930 UTC 20 January 2019
Temperature: 14.0°C (57°F)
Dewpoint: 13.0°C (55°F) [RH = 94%]
Pressure (altimeter): 30.00 inches Hg (1016.0 mb)
Winds: calm
Visibility: 1.37 miles (2.20 km)
Ceiling: at least 12,000 feet AGL
Clouds: sky clear below 12,000 feet AGL
Weather: BR  (mist)

METAR text: VECC 201900Z 00000KT 2200 BR NSC 14/12 Q1016 NOSIG
Conditions at: VECC (CALCUTTA/DUM DUM, IN) observed 1900 UTC 20 January 2019
Temperature: 14.0°C (57°F)
Dewpoint: 12.0°C (54°F) [RH = 88%]
Pressure (altimeter): 30.00 inches Hg (1016.0 mb)
Winds: calm
Visibility: 1.37 miles (2.20 km)
Ceiling: at least 12,000 feet AGL
Clouds: sky clear below 12,000 feet AGL
Weather: BR  (mist)

METAR text: VECC 201830Z 00000KT 2300 BR NSC 14/13 Q1016 NOSIG
Conditions at: VECC (CALCUTTA/DUM DUM, IN) observed 1830 UTC 20 January 2019
Temperature: 14.0°C (57°F)
Dewpoint: 13.0°C (55°F) [RH = 94%]
Pressure (altimeter): 30.00 inches Hg (1016.0 mb)
Winds: calm
Visibility: 1.43 miles (2.30 km)
Ceiling: at least 12,000 feet AGL
Clouds: sky clear below 12,000 feet AGL
Weather: BR  (mist)

METAR text: VECC 201800Z 00000KT 2400 BR NSC 14/13 Q1015 NOSIG
Conditions at: VECC (CALCUTTA/DUM DUM, IN) observed 1800 UTC 20 January 2019
Temperature: 14.0°C (57°F)
Dewpoint: 13.0°C (55°F) [RH = 94%]
Pressure (altimeter): 29.97 inches Hg (1015.0 mb)
Winds: calm
Visibility: 1.49 miles (2.40 km)
Ceiling: at least 12,000 feet AGL
Clouds: sky clear below 12,000 feet AGL
Weather: BR  (mist)

METAR text: VECC 201730Z 00000KT 2400 BR NSC 15/13 Q1015 NOSIG
Conditions at: VECC (CALCUTTA/DUM DUM, IN) observed 1730 UTC 20 January 2019
Temperature: 15.0°C (59°F)
Dewpoint: 13.0°C (55°F) [RH = 88%]
Pressure (altimeter): 29.97 inches Hg (1015.0 mb)
Winds: calm
Visibility: 1.49 miles (2.40 km)
Ceiling: at least 12,000 feet AGL
Clouds: sky clear below 12,000 feet AGL
Weather: BR  (mist)

METAR text: VECC 201700Z 00000KT 2400 BR NSC 15/12 Q1015 NOSIG
Conditions at: VECC (CALCUTTA/DUM DUM, IN) observed 1700 UTC 20 January 2019
Temperature: 15.0°C (59°F)
Dewpoint: 12.0°C (54°F) [RH = 82%]
Pressure (altimeter): 29.97 inches Hg (1015.0 mb)
Winds: calm
Visibility: 1.49 miles (2.40 km)
Ceiling: at least 12,000 feet AGL
Clouds: sky clear below 12,000 feet AGL
Weather: BR  (mist)

METAR text: VECC 201630Z 00000KT 2500 HZ NSC 16/13 Q1015 NOSIG
Conditions at: VECC (CALCUTTA/DUM DUM, IN) observed 1630 UTC 20 January 2019
Temperature: 16.0°C (61°F)
Dewpoint: 13.0°C (55°F) [RH = 82%]
Pressure (altimeter): 29.97 inches Hg (1015.0 mb)
Winds: calm
Visibility: 1.55 miles (2.49 km)
Ceiling: at least 12,000 feet AGL
Clouds: sky clear below 12,000 feet AGL
Weather: HZ  (haze)

METAR text: VECC 201600Z 00000KT 2500 HZ NSC 16/12 Q1015 NOSIG
Conditions at: VECC (CALCUTTA/DUM DUM, IN) observed 1600 UTC 20 January 2019
Temperature: 16.0°C (61°F)
Dewpoint: 12.0°C (54°F) [RH = 77%]
Pressure (altimeter): 29.97 inches Hg (1015.0 mb)
Winds: calm
Visibility: 1.55 miles (2.49 km)
Ceiling: at least 12,000 feet AGL
Clouds: sky clear below 12,000 feet AGL
Weather: HZ  (haze)

METAR text: VECC 201530Z 00000KT 2600 HZ NSC 16/12 Q1015 NOSIG
Conditions at: VECC (CALCUTTA/DUM DUM, IN) observed 1530 UTC 20 January 2019
Temperature: 16.0°C (61°F)
Dewpoint: 12.0°C (54°F) [RH = 77%]
Pressure (altimeter): 29.97 inches Hg (1015.0 mb)
Winds: calm
Visibility: 1.62 miles (2.61 km)
Ceiling: at least 12,000 feet AGL
Clouds: sky clear below 12,000 feet AGL
Weather: HZ  (haze)

METAR text: VECC 201500Z 00000KT 2600 HZ NSC 17/11 Q1015 NOSIG
Conditions at: VECC (CALCUTTA/DUM DUM, IN) observed 1500 UTC 20 January 2019
Temperature: 17.0°C (63°F)
Dewpoint: 11.0°C (52°F) [RH = 68%]
Pressure (altimeter): 29.97 inches Hg (1015.0 mb)
Winds: calm
Visibility: 1.62 miles (2.61 km)
Ceiling: at least 12,000 feet AGL
Clouds: sky clear below 12,000 feet AGL
Weather: HZ  (haze)

METAR text: VECC 201430Z 00000KT 2800 HZ NSC 18/11 Q1015 NOSIG
Conditions at: VECC (CALCUTTA/DUM DUM, IN) observed 1430 UTC 20 January 2019
Temperature: 18.0°C (64°F)
Dewpoint: 11.0°C (52°F) [RH = 64%]
Pressure (altimeter): 29.97 inches Hg (1015.0 mb)
Winds: calm
Visibility: 1.74 miles (2.80 km)
Ceiling: at least 12,000 feet AGL
Clouds: sky clear below 12,000 feet AGL
Weather: HZ  (haze)

METAR text: VECC 201400Z 00000KT 2800 HZ NSC 19/11 Q1015 NOSIG
Conditions at: VECC (CALCUTTA/DUM DUM, IN) observed 1400 UTC 20 January 2019
Temperature: 19.0°C (66°F)
Dewpoint: 11.0°C (52°F) [RH = 60%]
Pressure (altimeter): 29.97 inches Hg (1015.0 mb)
Winds: calm
Visibility: 1.74 miles (2.80 km)
Ceiling: at least 12,000 feet AGL
Clouds: sky clear below 12,000 feet AGL
Weather: HZ  (haze)

METAR text: VECC 201330Z 00000KT 2800 HZ NSC 20/12 Q1014 NOSIG
Conditions at: VECC (CALCUTTA/DUM DUM, IN) observed 1330 UTC 20 January 2019
Temperature: 20.0°C (68°F)
Dewpoint: 12.0°C (54°F) [RH = 60%]
Pressure (altimeter): 29.94 inches Hg (1014.0 mb)
Winds: calm
Visibility: 1.74 miles (2.80 km)
Ceiling: at least 12,000 feet AGL
Clouds: sky clear below 12,000 feet AGL
Weather: HZ  (haze)

METAR text: VECC 201300Z 00000KT 2800 HZ NSC 20/12 Q1014 NOSIG
Conditions at: VECC (CALCUTTA/DUM DUM, IN) observed 1300 UTC 20 January 2019
Temperature: 20.0°C (68°F)
Dewpoint: 12.0°C (54°F) [RH = 60%]
Pressure (altimeter): 29.94 inches Hg (1014.0 mb)
Winds: calm
Visibility: 1.74 miles (2.80 km)
Ceiling: at least 12,000 feet AGL
Clouds: sky clear below 12,000 feet AGL
Weather: HZ  (haze)

METAR text: VECC 201230Z 00000KT 3000 HZ NSC 21/12 Q1013 NOSIG
Conditions at: VECC (CALCUTTA/DUM DUM, IN) observed 1230 UTC 20 January 2019
Temperature: 21.0°C (70°F)
Dewpoint: 12.0°C (54°F) [RH = 56%]
Pressure (altimeter): 29.91 inches Hg (1013.0 mb)
Winds: calm
Visibility: 1.86 miles (2.99 km)
Ceiling: at least 12,000 feet AGL
Clouds: sky clear below 12,000 feet AGL
Weather: HZ  (haze)

METAR text: VECC 201200Z 00000KT 3000 HZ NSC 21/11 Q1013 NOSIG
Conditions at: VECC (CALCUTTA/DUM DUM, IN) observed 1200 UTC 20 January 2019
Temperature: 21.0°C (70°F)
Dewpoint: 11.0°C (52°F) [RH = 53%]
Pressure (altimeter): 29.91 inches Hg (1013.0 mb)
Winds: calm
Visibility: 1.86 miles (2.99 km)
Ceiling: at least 12,000 feet AGL
Clouds: sky clear below 12,000 feet AGL
Weather: HZ  (haze)

METAR text: VECC 201130Z 01005KT 3200 HZ NSC 22/11 Q1013 BECMG 3000 HZ
Conditions at: VECC (CALCUTTA/DUM DUM, IN) observed 1130 UTC 20 January 2019
Temperature: 22.0°C (72°F)
Dewpoint: 11.0°C (52°F) [RH = 50%]
Pressure (altimeter): 29.91 inches Hg (1013.0 mb)
Winds: from the N (10 degrees) at 6 MPH (5 knots; 2.6 m/s)
Visibility: 1.99 miles (3.20 km)
Ceiling: at least 12,000 feet AGL
Clouds: sky clear below 12,000 feet AGL
Weather: HZ  (haze)

METAR text: VECC 201100Z 35004KT 3500 HZ NSC 23/11 Q1013 NOSIG
Conditions at: VECC (CALCUTTA/DUM DUM, IN) observed 1100 UTC 20 January 2019
Temperature: 23.0°C (73°F)
Dewpoint: 11.0°C (52°F) [RH = 47%]
Pressure (altimeter): 29.91 inches Hg (1013.0 mb)
Winds: from the N (350 degrees) at 5 MPH (4 knots; 2.1 m/s)
Visibility: 2.17 miles (3.49 km)
Ceiling: at least 12,000 feet AGL
Clouds: sky clear below 12,000 feet AGL
Weather: HZ  (haze)

METAR text: VECC 201030Z 33005KT 3500 HZ NSC 24/11 Q1013 NOSIG
Conditions at: VECC (CALCUTTA/DUM DUM, IN) observed 1030 UTC 20 January 2019
Temperature: 24.0°C (75°F)
Dewpoint: 11.0°C (52°F) [RH = 44%]
Pressure (altimeter): 29.91 inches Hg (1013.0 mb)
Winds: from the NNW (330 degrees) at 6 MPH (5 knots; 2.6 m/s)
Visibility: 2.17 miles (3.49 km)
Ceiling: at least 12,000 feet AGL
Clouds: sky clear below 12,000 feet AGL
Weather: HZ  (haze)

METAR text: VECC 201000Z 32006KT 3500 HZ NSC 24/11 Q1013 NOSIG
Conditions at: VECC (CALCUTTA/DUM DUM, IN) observed 1000 UTC 20 January 2019
Temperature: 24.0°C (75°F)
Dewpoint: 11.0°C (52°F) [RH = 44%]
Pressure (altimeter): 29.91 inches Hg (1013.0 mb)
Winds: from the NW (320 degrees) at 7 MPH (6 knots; 3.1 m/s)
Visibility: 2.17 miles (3.49 km)
Ceiling: at least 12,000 feet AGL
Clouds: sky clear below 12,000 feet AGL
Weather: HZ  (haze)

METAR text: VECC 200930Z 32006KT 3500 HZ NSC 25/11 Q1013 NOSIG
Conditions at: VECC (CALCUTTA/DUM DUM, IN) observed 0930 UTC 20 January 2019
Temperature: 25.0°C (77°F)
Dewpoint: 11.0°C (52°F) [RH = 41%]
Pressure (altimeter): 29.91 inches Hg (1013.0 mb)
Winds: from the NW (320 degrees) at 7 MPH (6 knots; 3.1 m/s)
Visibility: 2.17 miles (3.49 km)
Ceiling: at least 12,000 feet AGL
Clouds: sky clear below 12,000 feet AGL
Weather: HZ  (haze)

METAR text: VECC 200900Z 31005KT 3500 HZ NSC 25/11 Q1013 NOSIG
Conditions at: VECC (CALCUTTA/DUM DUM, IN) observed 0900 UTC 20 January 2019
Temperature: 25.0°C (77°F)
Dewpoint: 11.0°C (52°F) [RH = 41%]
Pressure (altimeter): 29.91 inches Hg (1013.0 mb)
Winds: from the NW (310 degrees) at 6 MPH (5 knots; 2.6 m/s)
Visibility: 2.17 miles (3.49 km)
Ceiling: at least 12,000 feet AGL
Clouds: sky clear below 12,000 feet AGL
Weather: HZ  (haze)

METAR text: VECC 200830Z 31005KT 3500 HZ NSC 25/12 Q1014 NOSIG
Conditions at: VECC (CALCUTTA/DUM DUM, IN) observed 0830 UTC 20 January 2019
Temperature: 25.0°C (77°F)
Dewpoint: 12.0°C (54°F) [RH = 44%]
Pressure (altimeter): 29.94 inches Hg (1014.0 mb)
Winds: from the NW (310 degrees) at 6 MPH (5 knots; 2.6 m/s)
Visibility: 2.17 miles (3.49 km)
Ceiling: at least 12,000 feet AGL
Clouds: sky clear below 12,000 feet AGL
Weather: HZ  (haze)

METAR text: VECC 200800Z 33006KT 3500 HZ NSC 25/12 Q1014 NOSIG
Conditions at: VECC (CALCUTTA/DUM DUM, IN) observed 0800 UTC 20 January 2019
Temperature: 25.0°C (77°F)
Dewpoint: 12.0°C (54°F) [RH = 44%]
Pressure (altimeter): 29.94 inches Hg (1014.0 mb)
Winds: from the NNW (330 degrees) at 7 MPH (6 knots; 3.1 m/s)
Visibility: 2.17 miles (3.49 km)
Ceiling: at least 12,000 feet AGL
Clouds: sky clear below 12,000 feet AGL
Weather: HZ  (haze)

METAR text: VECC 200730Z 31007KT 3500 HZ NSC 25/12 Q1015 NOSIG
Conditions at: VECC (CALCUTTA/DUM DUM, IN) observed 0730 UTC 20 January 2019
Temperature: 25.0°C (77°F)
Dewpoint: 12.0°C (54°F) [RH = 44%]
Pressure (altimeter): 29.97 inches Hg (1015.0 mb)
Winds: from the NW (310 degrees) at 8 MPH (7 knots; 3.6 m/s)
Visibility: 2.17 miles (3.49 km)
Ceiling: at least 12,000 feet AGL
Clouds: sky clear below 12,000 feet AGL
Weather: HZ  (haze)

METAR text: VECC 200700Z 31006KT 3500 HZ NSC 24/12 Q1015 NOSIG
Conditions at: VECC (CALCUTTA/DUM DUM, IN) observed 0700 UTC 20 January 2019
Temperature: 24.0°C (75°F)
Dewpoint: 12.0°C (54°F) [RH = 47%]
Pressure (altimeter): 29.97 inches Hg (1015.0 mb)
Winds: from the NW (310 degrees) at 7 MPH (6 knots; 3.1 m/s)
Visibility: 2.17 miles (3.49 km)
Ceiling: at least 12,000 feet AGL
Clouds: sky clear below 12,000 feet AGL
Weather: HZ  (haze)

METAR text: VECC 200630Z 34006KT 3000 HZ NSC 24/13 Q1016 NOSIG
Conditions at: VECC (CALCUTTA/DUM DUM, IN) observed 0630 UTC 20 January 2019
Temperature: 24.0°C (75°F)
Dewpoint: 13.0°C (55°F) [RH = 50%]
Pressure (altimeter): 30.00 inches Hg (1016.0 mb)
Winds: from the NNW (340 degrees) at 7 MPH (6 knots; 3.1 m/s)
Visibility: 1.86 miles (2.99 km)
Ceiling: at least 12,000 feet AGL
Clouds: sky clear below 12,000 feet AGL
Weather: HZ  (haze)

METAR text: VECC 200600Z 34006KT 3000 HZ NSC 23/13 Q1017 NOSIG
Conditions at: VECC (CALCUTTA/DUM DUM, IN) observed 0600 UTC 20 January 2019
Temperature: 23.0°C (73°F)
Dewpoint: 13.0°C (55°F) [RH = 53%]
Pressure (altimeter): 30.03 inches Hg (1017.0 mb)
Winds: from the NNW (340 degrees) at 7 MPH (6 knots; 3.1 m/s)
Visibility: 1.86 miles (2.99 km)
Ceiling: at least 12,000 feet AGL
Clouds: sky clear below 12,000 feet AGL
Weather: HZ  (haze)

METAR text: VECC 200530Z 34007KT 2800 HZ NSC 23/13 Q1017 BECMG 3000 HZ
Conditions at: VECC (CALCUTTA/DUM DUM, IN) observed 0530 UTC 20 January 2019
Temperature: 23.0°C (73°F)
Dewpoint: 13.0°C (55°F) [RH = 53%]
Pressure (altimeter): 30.03 inches Hg (1017.0 mb)
Winds: from the NNW (340 degrees) at 8 MPH (7 knots; 3.6 m/s)
Visibility: 1.74 miles (2.80 km)
Ceiling: at least 12,000 feet AGL
Clouds: sky clear below 12,000 feet AGL
Weather: HZ  (haze)

METAR text: VECC 200500Z 35007KT 2600 HZ NSC 21/13 Q1018 NOSIG
Conditions at: VECC (CALCUTTA/DUM DUM, IN) observed 0500 UTC 20 January 2019
Temperature: 21.0°C (70°F)
Dewpoint: 13.0°C (55°F) [RH = 60%]
Pressure (altimeter): 30.06 inches Hg (1018.0 mb)
Winds: from the N (350 degrees) at 8 MPH (7 knots; 3.6 m/s)
Visibility: 1.62 miles (2.61 km)
Ceiling: at least 12,000 feet AGL
Clouds: sky clear below 12,000 feet AGL
Weather: HZ  (haze)

METAR text: VECC 200430Z 34007KT 2400 HZ NSC 20/13 Q1018 NOSIG
Conditions at: VECC (CALCUTTA/DUM DUM, IN) observed 0430 UTC 20 January 2019
Temperature: 20.0°C (68°F)
Dewpoint: 13.0°C (55°F) [RH = 64%]
Pressure (altimeter): 30.06 inches Hg (1018.0 mb)
Winds: from the NNW (340 degrees) at 8 MPH (7 knots; 3.6 m/s)
Visibility: 1.49 miles (2.40 km)
Ceiling: at least 12,000 feet AGL
Clouds: sky clear below 12,000 feet AGL
Weather: HZ  (haze)

METAR text: VECC 200400Z 34006KT 2400 HZ NSC 20/13 Q1018 NOSIG
Conditions at: VECC (CALCUTTA/DUM DUM, IN) observed 0400 UTC 20 January 2019
Temperature: 20.0°C (68°F)
Dewpoint: 13.0°C (55°F) [RH = 64%]
Pressure (altimeter): 30.06 inches Hg (1018.0 mb)
Winds: from the NNW (340 degrees) at 7 MPH (6 knots; 3.1 m/s)
Visibility: 1.49 miles (2.40 km)
Ceiling: at least 12,000 feet AGL
Clouds: sky clear below 12,000 feet AGL
Weather: HZ  (haze)

METAR text: VECC 200330Z 33004KT 2000 HZ NSC 19/12 Q1018 NOSIG
Conditions at: VECC (CALCUTTA/DUM DUM, IN) observed 0330 UTC 20 January 2019
Temperature: 19.0°C (66°F)
Dewpoint: 12.0°C (54°F) [RH = 64%]
Pressure (altimeter): 30.06 inches Hg (1018.0 mb)
Winds: from the NNW (330 degrees) at 5 MPH (4 knots; 2.1 m/s)
Visibility: 1.24 miles (2.00 km)
Ceiling: at least 12,000 feet AGL
Clouds: sky clear below 12,000 feet AGL
Weather: HZ  (haze)

METAR text: VECC 200300Z 31003KT 1800 BR NSC 17/12 Q1018 NOSIG
Conditions at: VECC (CALCUTTA/DUM DUM, IN) observed 0300 UTC 20 January 2019
Temperature: 17.0°C (63°F)
Dewpoint: 12.0°C (54°F) [RH = 72%]
Pressure (altimeter): 30.06 inches Hg (1018.0 mb)
Winds: from the NW (310 degrees) at 3 MPH (3 knots; 1.5 m/s)
Visibility: 1.12 miles (1.80 km)
Ceiling: at least 12,000 feet AGL
Clouds: sky clear below 12,000 feet AGL
Weather: BR  (mist)

METAR text: VECC 200230Z 00000KT 1500 BR NSC 15/11 Q1018 NOSIG
Conditions at: VECC (CALCUTTA/DUM DUM, IN) observed 0230 UTC 20 January 2019
Temperature: 15.0°C (59°F)
Dewpoint: 11.0°C (52°F) [RH = 77%]
Pressure (altimeter): 30.06 inches Hg (1018.0 mb)
Winds: calm
Visibility: 0.93 miles (1.50 km)
Ceiling: at least 12,000 feet AGL
Clouds: sky clear below 12,000 feet AGL
Weather: BR  (mist)

METAR text: VECC 200200Z 00000KT 1400 R01R/1500 BR NSC 13/11 Q1017 BECMG 1500 BR
Conditions at: VECC (CALCUTTA/DUM DUM, IN) observed 0200 UTC 20 January 2019
Temperature: 13.0°C (55°F)
Dewpoint: 11.0°C (52°F) [RH = 88%]
Pressure (altimeter): 30.03 inches Hg (1017.0 mb)
Winds: calm
Visibility: 0.87 miles (1.40 km)
Ceiling: at least 12,000 feet AGL
Clouds: sky clear below 12,000 feet AGL
Weather: BR  (mist)

METAR text: VECC 200130Z 00000KT 1500 BR NSC 12/11 Q1017 NOSIG
Conditions at: VECC (CALCUTTA/DUM DUM, IN) observed 0130 UTC 20 January 2019
Temperature: 12.0°C (54°F)
Dewpoint: 11.0°C (52°F) [RH = 94%]
Pressure (altimeter): 30.03 inches Hg (1017.0 mb)
Winds: calm
Visibility: 0.93 miles (1.50 km)
Ceiling: at least 12,000 feet AGL
Clouds: sky clear below 12,000 feet AGL
Weather: BR  (mist)

METAR text: VECC 200100Z 00000KT 1500 BR NSC 11/10 Q1016 BECMG 0800 FG
Conditions at: VECC (CALCUTTA/DUM DUM, IN) observed 0100 UTC 20 January 2019
Temperature: 11.0°C (52°F)
Dewpoint: 10.0°C (50°F) [RH = 94%]
Pressure (altimeter): 30.00 inches Hg (1016.0 mb)
Winds: calm
Visibility: 0.93 miles (1.50 km)
Ceiling: at least 12,000 feet AGL
Clouds: sky clear below 12,000 feet AGL
Weather: BR  (mist)

METAR text: VECC 200030Z 00000KT 1800 BR NSC 12/10 Q1016 NOSIG
Conditions at: VECC (CALCUTTA/DUM DUM, IN) observed 0030 UTC 20 January 2019
Temperature: 12.0°C (54°F)
Dewpoint: 10.0°C (50°F) [RH = 88%]
Pressure (altimeter): 30.00 inches Hg (1016.0 mb)
Winds: calm
Visibility: 1.12 miles (1.80 km)
Ceiling: at least 12,000 feet AGL
Clouds: sky clear below 12,000 feet AGL
Weather: BR  (mist)

METAR text: VECC 200000Z 00000KT 2000 BR NSC 12/10 Q1016 NOSIG
Conditions at: VECC (CALCUTTA/DUM DUM, IN) observed 0000 UTC 20 January 2019
Temperature: 12.0°C (54°F)
Dewpoint: 10.0°C (50°F) [RH = 88%]
Pressure (altimeter): 30.00 inches Hg (1016.0 mb)
Winds: calm
Visibility: 1.24 miles (2.00 km)
Ceiling: at least 12,000 feet AGL
Clouds: sky clear below 12,000 feet AGL
Weather: BR  (mist)

METAR text: VECC 192330Z 00000KT 2000 BR NSC 12/10 Q1016 NOSIG
Conditions at: VECC (CALCUTTA/DUM DUM, IN) observed 2330 UTC 19 January 2019
Temperature: 12.0°C (54°F)
Dewpoint: 10.0°C (50°F) [RH = 88%]
Pressure (altimeter): 30.00 inches Hg (1016.0 mb)
Winds: calm
Visibility: 1.24 miles (2.00 km)
Ceiling: at least 12,000 feet AGL
Clouds: sky clear below 12,000 feet AGL
Weather: BR  (mist)

METAR text: VECC 192300Z 00000KT 2000 BR NSC 12/10 Q1016 NOSIG
Conditions at: VECC (CALCUTTA/DUM DUM, IN) observed 2300 UTC 19 January 2019
Temperature: 12.0°C (54°F)
Dewpoint: 10.0°C (50°F) [RH = 88%]
Pressure (altimeter): 30.00 inches Hg (1016.0 mb)
Winds: calm
Visibility: 1.24 miles (2.00 km)
Ceiling: at least 12,000 feet AGL
Clouds: sky clear below 12,000 feet AGL
Weather: BR  (mist)

METAR text: VECC 192230Z 00000KT 2000 BR NSC 12/10 Q1015 NOSIG
Conditions at: VECC (CALCUTTA/DUM DUM, IN) observed 2230 UTC 19 January 2019
Temperature: 12.0°C (54°F)
Dewpoint: 10.0°C (50°F) [RH = 88%]
Pressure (altimeter): 29.97 inches Hg (1015.0 mb)
Winds: calm
Visibility: 1.24 miles (2.00 km)
Ceiling: at least 12,000 feet AGL
Clouds: sky clear below 12,000 feet AGL
Weather: BR  (mist)

METAR text: VECC 192200Z 00000KT 2000 BR NSC 12/10 Q1015 NOSIG
Conditions at: VECC (CALCUTTA/DUM DUM, IN) observed 2200 UTC 19 January 2019
Temperature: 12.0°C (54°F)
Dewpoint: 10.0°C (50°F) [RH = 88%]
Pressure (altimeter): 29.97 inches Hg (1015.0 mb)
Winds: calm
Visibility: 1.24 miles (2.00 km)
Ceiling: at least 12,000 feet AGL
Clouds: sky clear below 12,000 feet AGL
Weather: BR  (mist)

METAR text: VECC 192130Z 00000KT 2000 BR NSC 13/10 Q1015 NOSIG
Conditions at: VECC (CALCUTTA/DUM DUM, IN) observed 2130 UTC 19 January 2019
Temperature: 13.0°C (55°F)
Dewpoint: 10.0°C (50°F) [RH = 82%]
Pressure (altimeter): 29.97 inches Hg (1015.0 mb)
Winds: calm
Visibility: 1.24 miles (2.00 km)
Ceiling: at least 12,000 feet AGL
Clouds: sky clear below 12,000 feet AGL
Weather: BR  (mist)

METAR text: VECC 192100Z 00000KT 2000 BR NSC 13/10 Q1015 NOSIG
Conditions at: VECC (CALCUTTA/DUM DUM, IN) observed 2100 UTC 19 January 2019
Temperature: 13.0°C (55°F)
Dewpoint: 10.0°C (50°F) [RH = 82%]
Pressure (altimeter): 29.97 inches Hg (1015.0 mb)
Winds: calm
Visibility: 1.24 miles (2.00 km)
Ceiling: at least 12,000 feet AGL
Clouds: sky clear below 12,000 feet AGL
Weather: BR  (mist)

METAR text: VECC 192030Z 00000KT 1800 BR NSC 13/10 Q1015 NOSIG
Conditions at: VECC (CALCUTTA/DUM DUM, IN) observed 2030 UTC 19 January 2019
Temperature: 13.0°C (55°F)
Dewpoint: 10.0°C (50°F) [RH = 82%]
Pressure (altimeter): 29.97 inches Hg (1015.0 mb)
Winds: calm
Visibility: 1.12 miles (1.80 km)
Ceiling: at least 12,000 feet AGL
Clouds: sky clear below 12,000 feet AGL
Weather: BR  (mist)

METAR text: VECC 192000Z 00000KT 1500 BR NSC 13/11 Q1015 NOSIG
Conditions at: VECC (CALCUTTA/DUM DUM, IN) observed 2000 UTC 19 January 2019
Temperature: 13.0°C (55°F)
Dewpoint: 11.0°C (52°F) [RH = 88%]
Pressure (altimeter): 29.97 inches Hg (1015.0 mb)
Winds: calm
Visibility: 0.93 miles (1.50 km)
Ceiling: at least 12,000 feet AGL
Clouds: sky clear below 12,000 feet AGL
Weather: BR  (mist)

METAR text: VECC 191930Z 00000KT 1500 BR NSC 13/11 Q1015 NOSIG
Conditions at: VECC (CALCUTTA/DUM DUM, IN) observed 1930 UTC 19 January 2019
Temperature: 13.0°C (55°F)
Dewpoint: 11.0°C (52°F) [RH = 88%]
Pressure (altimeter): 29.97 inches Hg (1015.0 mb)
Winds: calm
Visibility: 0.93 miles (1.50 km)
Ceiling: at least 12,000 feet AGL
Clouds: sky clear below 12,000 feet AGL
Weather: BR  (mist)

METAR text: VECC 191900Z 00000KT 1500 BR NSC 14/12 Q1015 NOSIG
Conditions at: VECC (CALCUTTA/DUM DUM, IN) observed 1900 UTC 19 January 2019
Temperature: 14.0°C (57°F)
Dewpoint: 12.0°C (54°F) [RH = 88%]
Pressure (altimeter): 29.97 inches Hg (1015.0 mb)
Winds: calm
Visibility: 0.93 miles (1.50 km)
Ceiling: at least 12,000 feet AGL
Clouds: sky clear below 12,000 feet AGL
Weather: BR  (mist)

METAR text: VECC 191830Z 00000KT 1500 BR NSC 14/12 Q1015 NOSIG
Conditions at: VECC (CALCUTTA/DUM DUM, IN) observed 1830 UTC 19 January 2019
Temperature: 14.0°C (57°F)
Dewpoint: 12.0°C (54°F) [RH = 88%]
Pressure (altimeter): 29.97 inches Hg (1015.0 mb)
Winds: calm
Visibility: 0.93 miles (1.50 km)
Ceiling: at least 12,000 feet AGL
Clouds: sky clear below 12,000 feet AGL
Weather: BR  (mist)

METAR text: VECC 191800Z 00000KT 1800 BR NSC 14/12 Q1015 BECMG 1500 BR
Conditions at: VECC (CALCUTTA/DUM DUM, IN) observed 1800 UTC 19 January 2019
Temperature: 14.0°C (57°F)
Dewpoint: 12.0°C (54°F) [RH = 88%]
Pressure (altimeter): 29.97 inches Hg (1015.0 mb)
Winds: calm
Visibility: 1.12 miles (1.80 km)
Ceiling: at least 12,000 feet AGL
Clouds: sky clear below 12,000 feet AGL
Weather: BR  (mist)

Forecast for: VECC (CALCUTTA/DUM DUM, IN)
Text: TAF VECC 210500Z 2106/2212 35005KT 3200 HZ NSC
Forecast period: 0600 to 1200 UTC 21 January 2019
Forecast type: FROM: standard forecast or significant change
Winds: from the N (350 degrees) at 6 MPH (5 knots; 2.6 m/s)
Visibility: 1.99 miles (3.20 km)
Ceiling: unknown
Clouds: missing
Weather: HZ  (haze)
Text: BECMG 2112/2114 00000KT 2500 HZ
Forecast period: 1200 to 2300 UTC 21 January 2019
Forecast type: BECOMING: Conditions expected to become as follows by 1400 UTC 21 January 2019
Winds: calm
Visibility: 1.55 miles (2.49 km)
Ceiling: unknown
Clouds: missing
Weather: HZ  (haze)
Text: BECMG 2123/2201 1000 BR
Forecast period: 2300 UTC 21 January 2019 to 0300 UTC 22 January 2019
Forecast type: BECOMING: Conditions expected to become as follows by 0100 UTC 22 January 2019
Winds: calm
Visibility: 0.62 miles (1.00 km)
Ceiling: unknown
Clouds: missing
Weather: BR  (mist)
Text: BECMG 2203/2205 11005KT 2500 HZ
Forecast period: 0300 to 0600 UTC 22 January 2019
Forecast type: BECOMING: Conditions expected to become as follows by 0500 UTC 22 January 2019
Winds: from the ESE (110 degrees) at 6 MPH (5 knots; 2.6 m/s)
Visibility: 1.55 miles (2.49 km)
Ceiling: unknown
Clouds: missing
Weather: HZ  (haze)
Text: BECMG 2206/2208 3500 HZ
Forecast period: 0600 to 1200 UTC 22 January 2019
Forecast type: BECOMING: Conditions expected to become as follows by 0800 UTC 22 January 2019
Winds: from the ESE (110 degrees) at 6 MPH (5 knots; 2.6 m/s)
Visibility: 2.17 miles (3.49 km)
Ceiling: unknown
Clouds: missing
Weather: HZ  (haze)